createdAt,value
2023-05-09T00:01:04.678Z,50.5
2023-05-09T00:03:02.348Z,55
2023-05-09T00:04:59.831Z,56.7
2023-05-09T00:07:05.333Z,59.1
2023-05-09T00:12:58.139Z,56.9
2023-05-09T00:16:53.335Z,54.1
2023-05-09T00:20:56.373Z,56.4
2023-05-09T00:24:51.525Z,53.3
2023-05-09T00:25:54.301Z,52.3
2023-05-09T00:31:47.073Z,51.9
2023-05-09T00:37:47.757Z,51
2023-05-09T00:39:45.299Z,51
2023-05-09T00:41:42.899Z,50
2023-05-09T00:45:38.063Z,48.6
2023-05-09T00:49:41.148Z,49.4
2023-05-09T00:51:38.707Z,47.1
2023-05-09T00:53:36.323Z,48.3
2023-05-09T00:55:33.921Z,55.6
2023-05-09T00:57:31.473Z,50.7
2023-05-09T01:01:34.613Z,53.7
2023-05-09T01:03:32.217Z,52.9
2023-05-09T01:07:27.336Z,54.4
2023-05-09T01:09:24.899Z,52.8
2023-05-09T01:11:22.493Z,51
2023-05-09T01:13:20.147Z,54.1
2023-05-09T01:15:25.593Z,51.3
2023-05-09T01:17:23.173Z,46.3
2023-05-09T01:19:20.750Z,49.3
2023-05-09T01:20:23.498Z,49.2
2023-05-09T01:24:18.718Z,50.7
2023-05-09T01:30:19.352Z,49.3
2023-05-09T01:32:16.927Z,52
2023-05-09T01:34:14.503Z,45.8
2023-05-09T01:36:12.116Z,44.1
2023-05-09T01:40:07.307Z,46.8
2023-05-09T01:42:12.754Z,48.6
2023-05-09T01:44:10.423Z,48.1
2023-05-09T01:46:08.034Z,47.6
2023-05-09T01:48:05.542Z,51.6
2023-05-09T01:50:03.125Z,50.3
2023-05-09T01:52:00.676Z,49.8
2023-05-09T01:53:58.219Z,43.9
2023-05-09T01:56:03.756Z,50.3
2023-05-09T01:58:01.322Z,45.7
2023-05-09T01:59:58.903Z,46.8
2023-05-09T02:01:56.565Z,46
2023-05-09T02:03:54.049Z,46.4
2023-05-09T02:05:51.629Z,46.1
2023-05-09T02:09:55.310Z,45.7
2023-05-09T02:11:52.905Z,47.1
2023-05-09T02:16:17.435Z,50.3
2023-05-09T02:18:14.991Z,45.9
2023-05-09T02:24:15.692Z,46.8
2023-05-09T02:26:13.236Z,45.2
2023-05-09T02:32:06.000Z,45.6
2023-05-09T02:34:03.578Z,43.2
2023-05-09T02:36:09.043Z,44
2023-05-09T02:38:06.654Z,46.8
2023-05-09T02:40:04.219Z,46.2
2023-05-09T02:42:01.790Z,45.5
2023-05-09T02:43:59.355Z,44.1
2023-05-09T02:47:54.642Z,49
2023-05-09T02:50:00.130Z,49
2023-05-09T02:51:57.657Z,44.1
2023-05-09T02:53:55.225Z,44.3
2023-05-09T02:55:52.823Z,42.3
2023-05-09T02:57:56.227Z,45.3
2023-05-09T03:01:45.690Z,45.7
2023-05-09T03:03:51.174Z,47.3
2023-05-09T03:05:48.649Z,44
2023-05-09T03:14:41.737Z,44.4
2023-05-09T03:16:47.241Z,42.9
2023-05-09T03:18:44.860Z,45.4
2023-05-09T03:20:42.416Z,42.2
2023-05-09T03:22:40.053Z,44
2023-05-09T03:24:37.644Z,39.8
2023-05-09T03:26:35.203Z,38.4
2023-05-09T03:30:38.304Z,44.5
2023-05-09T03:34:33.470Z,38.9
2023-05-09T03:36:31.084Z,36.5
2023-05-09T03:38:28.684Z,37.2
2023-05-09T03:50:22.112Z,36.6
2023-05-09T03:52:19.722Z,33.5
2023-05-09T03:54:17.311Z,36
2023-05-09T03:56:14.914Z,40.3
2023-05-09T04:00:17.976Z,39.5
2023-05-09T04:02:15.617Z,36.9
2023-05-09T04:07:13.522Z,38.9
2023-05-09T04:09:11.116Z,36.3
2023-05-09T04:11:16.594Z,38.8
2023-05-09T04:13:14.183Z,35.8
2023-05-09T04:17:09.528Z,39.6
2023-05-09T04:23:02.116Z,39.1
2023-05-09T04:29:02.814Z,32.3
2023-05-09T04:32:57.985Z,35
2023-05-09T04:34:55.526Z,35.9
2023-05-09T04:38:58.623Z,41.9
2023-05-09T04:44:52.955Z,33.8
2023-05-09T04:48:48.063Z,36.3
2023-05-09T04:54:48.739Z,37.1
2023-05-09T04:56:47.391Z,36
2023-05-09T04:57:49.083Z,40.9
2023-05-09T05:01:44.324Z,35.8
2023-05-09T05:17:32.859Z,34.6
2023-05-09T05:23:33.563Z,33.4
2023-05-09T05:25:31.153Z,32.7
2023-05-09T05:27:28.745Z,36.3
2023-05-09T05:29:26.320Z,33.9
2023-05-09T05:31:23.943Z,33.3
2023-05-09T05:33:29.438Z,35.2
2023-05-09T05:35:27.022Z,30.7
2023-05-09T05:39:22.185Z,31.2
2023-05-09T05:41:19.733Z,33.1
2023-05-09T05:43:17.322Z,34.3
2023-05-09T05:45:15.166Z,31.7
2023-05-09T05:47:20.459Z,33.2
2023-05-09T05:49:18.014Z,32.1
2023-05-09T05:51:15.574Z,32.3
2023-05-09T05:55:40.042Z,30.9
2023-05-09T05:59:43.153Z,35.2
2023-05-09T06:01:40.851Z,29.6
2023-05-09T06:03:38.346Z,30.1
2023-05-09T06:07:33.444Z,32
2023-05-09T06:11:28.616Z,27.9
2023-05-09T06:13:34.125Z,30.2
2023-05-09T06:15:31.717Z,25.7
2023-05-09T06:19:26.888Z,27.8
2023-05-09T06:21:24.493Z,31.2
2023-05-09T06:23:22.111Z,28.3
2023-05-09T06:25:19.674Z,27.7
2023-05-09T06:27:25.200Z,28.4
2023-05-09T06:29:22.759Z,24.9
2023-05-09T06:31:20.402Z,27.1
2023-05-09T06:33:17.925Z,28.4
2023-05-09T06:37:13.136Z,26
2023-05-09T06:39:10.687Z,26.2
2023-05-09T06:41:16.172Z,26.2
2023-05-09T06:43:13.767Z,27.6
2023-05-09T06:46:14.119Z,29.7
2023-05-09T06:50:09.228Z,23.8
2023-05-09T06:52:06.844Z,27.9
2023-05-09T06:54:12.329Z,25.8
2023-05-09T06:56:09.935Z,27.5
2023-05-09T06:58:07.516Z,26.7
2023-05-09T07:00:05.071Z,24
2023-05-09T07:02:02.741Z,24.1
2023-05-09T07:04:00.228Z,24.1
2023-05-09T07:05:57.809Z,23.2
2023-05-09T07:08:03.290Z,26.5
2023-05-09T07:11:58.434Z,23.5
2023-05-09T07:13:55.986Z,22.9
2023-05-09T07:17:51.241Z,21.4
2023-05-09T07:19:48.729Z,22.5
2023-05-09T07:21:54.248Z,24.4
2023-05-09T07:29:44.488Z,18.9
2023-05-09T07:37:42.682Z,17.9
2023-05-09T07:44:38.174Z,17.5
2023-05-09T07:48:41.246Z,17
2023-05-09T07:52:36.395Z,17.2
2023-05-09T07:54:33.950Z,15.5
2023-05-09T08:00:26.637Z,18.2
2023-05-09T08:02:32.235Z,15.8
2023-05-09T08:04:29.753Z,17.5
2023-05-09T08:06:27.271Z,16.9
2023-05-09T08:08:24.839Z,20.7
2023-05-09T08:24:13.308Z,26.6
2023-05-09T08:26:10.829Z,17.7
2023-05-09T08:28:08.412Z,15.9
2023-05-09T08:30:13.883Z,17.6
2023-05-09T08:32:11.432Z,15.2
2023-05-09T08:34:08.988Z,14.3
2023-05-09T08:45:07.472Z,25.8
2023-05-09T08:47:05.161Z,13.2
2023-05-09T08:49:02.568Z,12.9
2023-05-09T08:51:00.146Z,13.8
2023-05-09T08:52:57.658Z,15.6
2023-05-09T08:54:55.220Z,14.9
2023-05-09T08:57:00.732Z,15.5
2023-05-09T08:58:58.252Z,15.8
2023-05-09T09:02:53.618Z,12.5
2023-05-09T09:04:50.923Z,30
2023-05-09T09:06:48.442Z,13.7
2023-05-09T09:08:45.988Z,30.9
2023-05-09T09:10:51.496Z,20.2
2023-05-09T09:12:50.233Z,24.7
2023-05-09T09:14:46.604Z,16.2
2023-05-09T09:16:44.191Z,18.6
2023-05-09T09:18:41.722Z,62
2023-05-09T09:20:39.267Z,16.2
2023-05-09T09:22:36.806Z,34.3
2023-05-09T09:33:01.805Z,15.7
2023-05-09T09:34:59.250Z,15.4
2023-05-09T09:37:04.789Z,15.2
2023-05-09T09:39:02.268Z,15.8
2023-05-09T09:40:59.825Z,16.1
2023-05-09T09:42:57.356Z,14.8
2023-05-09T09:44:54.879Z,13.9
2023-05-09T09:46:52.442Z,26.3
2023-05-09T09:48:49.986Z,16.3
2023-05-09T09:50:55.463Z,18.1
2023-05-09T09:52:53.032Z,18.5
2023-05-09T09:54:50.548Z,13
2023-05-09T09:56:48.113Z,14.9
2023-05-09T10:02:40.818Z,15.3
2023-05-09T10:06:43.763Z,15.3
2023-05-09T10:10:38.895Z,14.5
2023-05-09T10:12:36.455Z,15.3
2023-05-09T10:14:35.303Z,12.3
2023-05-09T10:16:42.736Z,14.6
2023-05-09T10:18:37.370Z,11.2
2023-05-09T10:20:34.623Z,12.9
2023-05-09T10:22:32.166Z,12
2023-05-09T10:23:34.904Z,11.7
2023-05-09T10:25:34.043Z,11.8
2023-05-09T10:49:20.515Z,8
2023-05-09T10:55:13.423Z,6.5
2023-05-09T10:57:10.737Z,6.4
2023-05-09T10:59:16.201Z,6.5
2023-05-09T11:03:11.390Z,6.4
2023-05-09T11:05:08.831Z,6.7
2023-05-09T11:17:02.091Z,6.8
2023-05-09T11:18:04.894Z,6.4
2023-05-09T11:21:59.917Z,6.5
2023-05-09T11:26:02.941Z,7.1
2023-05-09T11:28:00.500Z,6.8
2023-05-09T11:29:58.060Z,7.6
2023-05-09T11:33:53.162Z,7.2
2023-05-09T11:37:48.366Z,6.9
2023-05-09T11:39:53.774Z,8.2
2023-05-09T11:41:51.337Z,8.3
2023-05-09T11:47:44.086Z,8.5
2023-05-09T11:49:41.605Z,9.1
2023-05-09T11:51:39.158Z,8.7
2023-05-09T11:53:44.627Z,9
2023-05-09T11:55:42.187Z,10.6
2023-05-09T11:57:39.773Z,10.2
2023-05-09T11:59:37.339Z,9.6
2023-05-09T12:03:32.556Z,8.6
2023-05-09T12:05:30.025Z,7.7
2023-05-09T12:07:35.570Z,8.3
2023-05-09T12:09:33.139Z,7.9
2023-05-09T12:11:30.671Z,7.8
2023-05-09T12:12:33.404Z,6.6
2023-05-09T12:14:30.988Z,6.9
2023-05-09T12:18:26.129Z,6.6
2023-05-09T12:20:31.644Z,9.3
2023-05-09T12:22:29.203Z,7.5
2023-05-09T12:24:26.832Z,7
2023-05-09T12:26:24.378Z,6.7
2023-05-09T12:30:19.578Z,7.7
2023-05-09T12:32:17.139Z,9.1
2023-05-09T12:34:22.660Z,8.7
2023-05-09T12:36:20.231Z,8.3
2023-05-09T12:38:17.834Z,7.3
2023-05-09T12:40:15.586Z,6.6
2023-05-09T12:42:12.999Z,8
2023-05-09T12:44:10.621Z,7.4
2023-05-09T12:46:08.185Z,5.3
2023-05-09T12:48:13.721Z,7.1
2023-05-09T12:50:11.283Z,4.7
2023-05-09T12:56:03.984Z,3.8
2023-05-09T12:58:01.861Z,4
2023-05-09T12:59:59.138Z,5.5
2023-05-09T13:02:04.758Z,2.7
2023-05-09T13:04:02.259Z,4.2
2023-05-09T13:08:26.693Z,4.4
2023-05-09T13:16:25.021Z,4.1
2023-05-09T13:18:22.498Z,4
2023-05-09T13:20:20.103Z,4.5
2023-05-09T13:22:17.674Z,4.9
2023-05-09T13:24:15.258Z,4.2
2023-05-09T13:26:12.889Z,4.2
2023-05-09T13:28:18.320Z,4
2023-05-09T13:30:16.258Z,4.7
2023-05-09T13:32:13.459Z,4.8
2023-05-09T13:34:11.025Z,5.4
2023-05-09T13:36:08.586Z,8.2
2023-05-09T13:38:06.204Z,4.5
2023-05-09T13:44:06.856Z,5.6
2023-05-09T13:48:02.090Z,6.4
2023-05-09T13:49:59.608Z,4.1
2023-05-09T13:51:57.183Z,3.6
2023-05-09T13:53:54.794Z,3.4
2023-05-09T13:56:00.276Z,2.8
2023-05-09T13:57:57.882Z,4.9
2023-05-09T14:00:58.219Z,3.3
2023-05-09T14:02:55.858Z,3.3
2023-05-09T14:04:53.344Z,2
2023-05-09T14:06:50.938Z,3.8
2023-05-09T14:08:56.424Z,2.8
2023-05-09T14:18:44.353Z,3.3
2023-05-09T14:20:41.926Z,2.5
2023-05-09T14:22:47.424Z,2
2023-05-09T14:24:44.992Z,2.8
2023-05-09T14:26:42.529Z,7
2023-05-09T14:32:35.362Z,3.3
2023-05-09T14:34:32.947Z,7.9
2023-05-09T14:36:38.470Z,7.6
2023-05-09T14:40:33.614Z,3.1
2023-05-09T14:44:28.780Z,3.5
2023-05-09T14:46:26.479Z,9.8
2023-05-09T14:48:23.992Z,7.2
2023-05-09T14:50:29.476Z,3.6
2023-05-09T14:52:27.062Z,9.2
2023-05-09T14:54:24.627Z,4.6
2023-05-09T14:55:27.394Z,2.8
2023-05-09T14:57:24.992Z,3.4
2023-05-09T14:59:22.584Z,2.1
2023-05-09T15:01:20.264Z,4.3
2023-05-09T15:03:25.699Z,3.5
2023-05-09T15:05:23.303Z,3.5
2023-05-09T15:07:20.898Z,6.9
2023-05-09T15:09:18.479Z,5.5
2023-05-09T15:11:16.094Z,4.6
2023-05-09T15:13:13.758Z,5.5
2023-05-09T15:15:11.267Z,3.7
2023-05-09T15:17:16.749Z,22.8
2023-05-09T15:19:14.382Z,18.6
2023-05-09T15:23:09.566Z,2.7
2023-05-09T15:25:07.117Z,7.7
2023-05-09T15:27:04.686Z,11
2023-05-09T15:29:02.295Z,3.9
2023-05-09T15:33:05.542Z,3.9
2023-05-09T15:37:00.575Z,7.9
2023-05-09T15:38:58.123Z,9.8
2023-05-09T15:40:55.739Z,3.9
2023-05-09T15:42:53.327Z,5.9
2023-05-09T15:44:58.846Z,8.1
2023-05-09T15:46:56.421Z,2.6
2023-05-09T15:51:54.347Z,4.4
2023-05-09T15:53:51.937Z,6.6
2023-05-09T15:57:55.032Z,4.8
2023-05-09T16:01:50.236Z,3.7
2023-05-09T16:07:44.546Z,5.8
2023-05-09T16:09:42.081Z,7.5
2023-05-09T16:11:47.628Z,6.1
2023-05-09T16:13:45.209Z,4.4
2023-05-09T16:17:40.385Z,5.5
2023-05-09T16:19:37.983Z,8
2023-05-09T16:21:35.587Z,15.6
2023-05-09T16:25:38.675Z,8.6
2023-05-09T16:27:36.245Z,7.8
2023-05-09T16:29:33.844Z,35.3
2023-05-09T16:33:29.005Z,7.2
2023-05-09T16:35:26.604Z,5.7
2023-05-09T16:39:29.714Z,5.6
2023-05-09T16:45:45.574Z,5.9
2023-05-09T16:47:43.189Z,7.5
2023-05-09T16:51:46.268Z,8.9
2023-05-09T16:53:43.837Z,5.4
2023-05-09T16:55:41.418Z,6.3
2023-05-09T16:57:39.022Z,5.7
2023-05-09T17:01:34.255Z,8.5
2023-05-09T17:03:31.820Z,10
2023-05-09T17:05:37.299Z,19.6
2023-05-09T17:07:34.891Z,8.5
2023-05-09T17:09:32.518Z,11.7
2023-05-09T17:11:30.046Z,48.7
2023-05-09T17:15:25.247Z,51.9
2023-05-09T17:19:28.344Z,36.3
2023-05-09T17:29:16.294Z,6.9
2023-05-09T17:35:16.989Z,6.1
2023-05-09T17:37:14.575Z,6.9
2023-05-09T17:38:17.356Z,7.1
2023-05-09T17:44:10.055Z,9.9
2023-05-09T17:46:15.565Z,6.5
2023-05-09T17:48:13.145Z,6.4
2023-05-09T17:52:08.332Z,5.7
2023-05-09T17:54:05.923Z,6.7
2023-05-09T17:56:03.546Z,6.4
2023-05-09T17:58:01.121Z,6.9
2023-05-09T18:00:06.633Z,6.6
2023-05-09T18:02:04.277Z,15.6
2023-05-09T18:04:01.881Z,8.3
2023-05-09T18:07:56.964Z,16.9
2023-05-09T18:11:52.184Z,7.3
2023-05-09T18:17:52.901Z,9.8
2023-05-09T18:19:50.473Z,7.5
2023-05-09T18:21:48.054Z,6.5
2023-05-09T18:25:43.231Z,7.2
2023-05-09T18:27:48.720Z,13.6
2023-05-09T18:32:46.676Z,7
2023-05-09T18:34:44.270Z,7.6
2023-05-09T18:36:41.840Z,7.7
2023-05-09T18:40:44.941Z,7.8
2023-05-09T18:42:42.518Z,8.6
2023-05-09T18:44:40.091Z,8.1
2023-05-09T18:48:35.244Z,7.5
2023-05-09T18:50:32.830Z,8.1
2023-05-09T18:54:35.931Z,9.2
2023-05-09T18:56:33.543Z,8.4
2023-05-09T19:02:26.324Z,9.6
2023-05-09T19:10:24.536Z,9.6
2023-05-09T19:12:22.147Z,10.2
2023-05-09T19:14:19.693Z,10.5
2023-05-09T19:18:14.929Z,76.6
2023-05-09T19:20:12.545Z,140.8
2023-05-09T19:22:17.996Z,18
2023-05-09T19:24:15.554Z,34.8
2023-05-09T19:26:13.180Z,12.1
2023-05-09T19:27:15.909Z,19.2
2023-05-09T19:37:11.800Z,8.9
2023-05-09T19:41:06.975Z,9.7
2023-05-09T19:43:04.600Z,10.5
2023-05-09T19:46:59.744Z,10.9
2023-05-09T19:49:05.267Z,8.7
2023-05-09T19:51:02.867Z,10.7
2023-05-09T19:53:00.430Z,10
2023-05-09T19:54:58.058Z,10.1
2023-05-09T19:56:55.639Z,9.4
2023-05-09T20:04:53.978Z,9.3
2023-05-09T20:10:46.716Z,10.8
2023-05-09T20:14:41.896Z,11.9
2023-05-09T20:16:47.445Z,11.4
2023-05-09T20:18:45.042Z,13.1
2023-05-09T20:27:04.747Z,12.4
2023-05-09T20:29:10.269Z,14.1
2023-05-09T20:33:05.469Z,13.5
2023-05-09T20:37:00.632Z,13.3
2023-05-09T20:40:55.798Z,12.7
2023-05-09T20:43:01.316Z,12.9
2023-05-09T20:44:58.913Z,15
2023-05-09T20:46:56.496Z,14.5
2023-05-09T20:48:54.141Z,12.7
2023-05-09T20:54:46.904Z,12.7
2023-05-09T20:56:52.434Z,15.2
2023-05-09T20:58:50.054Z,15.2
2023-05-09T21:02:45.326Z,13.2
2023-05-09T21:06:40.366Z,14.9
2023-05-09T21:15:41.437Z,14.7
2023-05-09T21:17:39.081Z,13
2023-05-09T21:19:36.612Z,15.2
2023-05-09T21:21:34.221Z,13.1
2023-05-09T21:23:39.717Z,15.1
2023-05-09T21:25:37.324Z,12.6
2023-05-09T21:27:34.909Z,13.9
2023-05-09T21:29:32.492Z,14.1
2023-05-09T21:31:30.179Z,12.8
2023-05-09T21:35:25.268Z,10.4
2023-05-09T21:39:28.392Z,9.4
2023-05-09T21:43:23.545Z,8.5
2023-05-09T21:45:21.126Z,7.9
2023-05-09T21:49:17.890Z,7
2023-05-09T21:53:20.922Z,5.3
2023-05-09T21:55:18.517Z,4.4
2023-05-09T21:57:16.122Z,6.4
2023-05-09T21:59:13.709Z,4.5
2023-05-09T22:01:11.317Z,5.6
2023-05-09T22:03:09.042Z,5.7
2023-05-09T22:05:14.455Z,5.7
2023-05-09T22:07:12.033Z,4.6
2023-05-09T22:10:12.390Z,5.5
2023-05-09T22:12:09.973Z,4
2023-05-09T22:16:05.252Z,3.9
2023-05-09T22:18:10.687Z,4.2
2023-05-09T22:20:08.286Z,3.6
2023-05-09T22:22:05.884Z,3
2023-05-09T22:24:03.528Z,3
2023-05-09T22:32:01.859Z,4.1
2023-05-09T22:33:59.405Z,4
2023-05-09T22:43:47.372Z,5.2
2023-05-09T22:47:50.627Z,4.9
2023-05-09T22:49:48.127Z,4.7
2023-05-09T22:51:45.744Z,5
2023-05-09T22:53:43.349Z,5.1
2023-05-09T22:55:40.934Z,5.3
2023-05-09T22:57:38.557Z,7
2023-05-09T22:59:44.043Z,6.1
2023-05-09T23:01:41.764Z,5.1
2023-05-09T23:03:39.357Z,13.1
2023-05-09T23:04:42.014Z,8.7
2023-05-09T23:06:39.593Z,8.3
2023-05-09T23:08:37.182Z,7.5
2023-05-09T23:10:34.787Z,6.3
2023-05-09T23:12:40.281Z,8.8
2023-05-09T23:14:37.890Z,8.9
2023-05-09T23:16:35.497Z,7.4
2023-05-09T23:18:33.088Z,7.4
2023-05-09T23:20:30.671Z,11.2
2023-05-09T23:24:25.890Z,7.8
2023-05-09T23:28:29.023Z,8.7
2023-05-09T23:30:26.591Z,9.1
2023-05-09T23:32:24.193Z,9.7
2023-05-09T23:34:21.813Z,8.5
2023-05-09T23:44:17.729Z,8.9
2023-05-09T23:46:15.375Z,10.7
2023-05-09T23:48:12.948Z,12
2023-05-09T23:50:10.531Z,10.8
2023-05-09T23:52:08.150Z,11.1
2023-05-09T23:54:13.670Z,11.1
2023-05-09T23:56:11.260Z,10.2
2023-05-09T23:58:08.848Z,9.8
